sensor_id;sensor_type;location;lat;lon;timestamp;pressure;altitude;pressure_sealevel;temperature;humidity
16331;BME280;8275;48.206;16.340;2023-03-19T00:01:03;99183.31;;;12.85;27.93
16331;BME280;8275;48.206;16.340;2023-03-19T00:03:32;99171.75;;;12.83;27.76
16331;BME280;8275;48.206;16.340;2023-03-19T00:06:02;99167.38;;;12.82;28.16
16331;BME280;8275;48.206;16.340;2023-03-19T00:08:31;99176.72;;;12.81;28.07
16331;BME280;8275;48.206;16.340;2023-03-19T00:11:05;99183.56;;;12.78;28.18
16331;BME280;8275;48.206;16.340;2023-03-19T00:13:34;99172.03;;;12.76;28.32
16331;BME280;8275;48.206;16.340;2023-03-19T00:16:03;99172.59;;;12.73;28.18
16331;BME280;8275;48.206;16.340;2023-03-19T00:18:32;99178.63;;;12.70;28.26
16331;BME280;8275;48.206;16.340;2023-03-19T00:21:02;99178.34;;;12.66;28.57
16331;BME280;8275;48.206;16.340;2023-03-19T00:23:31;99191.53;;;12.64;28.65
16331;BME280;8275;48.206;16.340;2023-03-19T00:25:59;99185.75;;;12.61;28.40
16331;BME280;8275;48.206;16.340;2023-03-19T00:28:28;99179.97;;;12.57;28.51
16331;BME280;8275;48.206;16.340;2023-03-19T00:30:57;99188.50;;;12.56;28.69
16331;BME280;8275;48.206;16.340;2023-03-19T00:33:25;99186.03;;;12.54;28.92
16331;BME280;8275;48.206;16.340;2023-03-19T00:35:53;99188.19;;;12.52;28.59
16331;BME280;8275;48.206;16.340;2023-03-19T00:38:23;99179.69;;;12.49;28.97
16331;BME280;8275;48.206;16.340;2023-03-19T00:40:52;99182.72;;;12.47;29.04
16331;BME280;8275;48.206;16.340;2023-03-19T00:43:20;99188.44;;;12.46;29.02
16331;BME280;8275;48.206;16.340;2023-03-19T00:45:49;99189.81;;;12.43;29.13
16331;BME280;8275;48.206;16.340;2023-03-19T00:48:18;99193.97;;;12.41;29.07
16331;BME280;8275;48.206;16.340;2023-03-19T00:50:47;99193.66;;;12.37;29.21
16331;BME280;8275;48.206;16.340;2023-03-19T00:53:16;99197.75;;;12.35;29.30
16331;BME280;8275;48.206;16.340;2023-03-19T00:55:46;99195.53;;;12.32;29.20
16331;BME280;8275;48.206;16.340;2023-03-19T00:58:14;99188.69;;;12.29;29.32
16331;BME280;8275;48.206;16.340;2023-03-19T01:00:43;99181.28;;;12.25;29.37
16331;BME280;8275;48.206;16.340;2023-03-19T01:03:11;99184.53;;;12.22;29.15
16331;BME280;8275;48.206;16.340;2023-03-19T01:05:40;99185.91;;;12.19;29.56
16331;BME280;8275;48.206;16.340;2023-03-19T01:08:08;99171.06;;;12.15;29.38
16331;BME280;8275;48.206;16.340;2023-03-19T01:10:37;99176.25;;;12.12;29.40
16331;BME280;8275;48.206;16.340;2023-03-19T01:13:07;99175.69;;;12.10;29.89
16331;BME280;8275;48.206;16.340;2023-03-19T01:15:35;99165.25;;;12.07;29.87
16331;BME280;8275;48.206;16.340;2023-03-19T01:18:05;99161.09;;;12.04;29.90
16331;BME280;8275;48.206;16.340;2023-03-19T01:20:34;99161.66;;;12.01;29.96
16331;BME280;8275;48.206;16.340;2023-03-19T01:23:02;99168.25;;;12.00;30.11
16331;BME280;8275;48.206;16.340;2023-03-19T01:25:32;99163.31;;;11.97;30.05
16331;BME280;8275;48.206;16.340;2023-03-19T01:28:01;99165.47;;;11.95;29.95
16331;BME280;8275;48.206;16.340;2023-03-19T01:30:31;99161.59;;;11.91;30.50
16331;BME280;8275;48.206;16.340;2023-03-19T01:33:00;99177.25;;;11.90;30.33
16331;BME280;8275;48.206;16.340;2023-03-19T01:35:28;99172.03;;;11.89;30.21
16331;BME280;8275;48.206;16.340;2023-03-19T01:37:57;99163.81;;;11.89;30.05
16331;BME280;8275;48.206;16.340;2023-03-19T01:40:25;99171.19;;;11.88;30.63
16331;BME280;8275;48.206;16.340;2023-03-19T01:42:56;99167.91;;;11.86;30.33
16331;BME280;8275;48.206;16.340;2023-03-19T01:45:41;99172.00;;;11.84;30.37
16331;BME280;8275;48.206;16.340;2023-03-19T01:48:20;99171.44;;;11.82;30.42
16331;BME280;8275;48.206;16.340;2023-03-19T01:50:50;99172.28;;;11.82;30.70
16331;BME280;8275;48.206;16.340;2023-03-19T01:53:26;99165.41;;;11.80;30.58
16331;BME280;8275;48.206;16.340;2023-03-19T01:56:03;99165.94;;;11.77;30.61
16331;BME280;8275;48.206;16.340;2023-03-19T01:58:34;99167.03;;;11.76;30.46
16331;BME280;8275;48.206;16.340;2023-03-19T02:01:04;99151.09;;;11.73;30.55
16331;BME280;8275;48.206;16.340;2023-03-19T02:03:33;99146.69;;;11.72;30.74
16331;BME280;8275;48.206;16.340;2023-03-19T02:06:02;99160.69;;;11.70;30.60
16331;BME280;8275;48.206;16.340;2023-03-19T02:08:31;99148.06;;;11.69;30.79
16331;BME280;8275;48.206;16.340;2023-03-19T02:11:01;99146.41;;;11.68;30.93
16331;BME280;8275;48.206;16.340;2023-03-19T02:13:29;99145.56;;;11.68;30.72
16331;BME280;8275;48.206;16.340;2023-03-19T02:15:58;99159.53;;;11.66;30.80
16331;BME280;8275;48.206;16.340;2023-03-19T02:18:28;99155.13;;;11.65;30.80
16331;BME280;8275;48.206;16.340;2023-03-19T02:21:04;99151.59;;;11.65;31.05
16331;BME280;8275;48.206;16.340;2023-03-19T02:23:40;99158.16;;;11.64;31.30
16331;BME280;8275;48.206;16.340;2023-03-19T02:26:14;99161.16;;;11.62;31.19
16331;BME280;8275;48.206;16.340;2023-03-19T02:28:45;99169.41;;;11.62;31.18
16331;BME280;8275;48.206;16.340;2023-03-19T02:31:16;99161.41;;;11.61;31.09
16331;BME280;8275;48.206;16.340;2023-03-19T02:33:57;99161.13;;;11.57;31.26
16331;BME280;8275;48.206;16.340;2023-03-19T02:36:29;99161.13;;;11.57;31.16
16331;BME280;8275;48.206;16.340;2023-03-19T02:39:03;99161.13;;;11.57;31.49
16331;BME280;8275;48.206;16.340;2023-03-19T02:41:36;99162.78;;;11.58;31.56
16331;BME280;8275;48.206;16.340;2023-03-19T02:44:08;99166.63;;;11.57;31.50
16331;BME280;8275;48.206;16.340;2023-03-19T02:46:39;99172.94;;;11.58;31.21
16331;BME280;8275;48.206;16.340;2023-03-19T02:49:08;99168.25;;;11.58;31.40
16331;BME280;8275;48.206;16.340;2023-03-19T02:51:37;99162.53;;;11.60;31.43
16331;BME280;8275;48.206;16.340;2023-03-19T02:54:06;99173.50;;;11.60;31.47
16331;BME280;8275;48.206;16.340;2023-03-19T02:56:36;99175.41;;;11.59;31.60
16331;BME280;8275;48.206;16.340;2023-03-19T02:59:04;99167.47;;;11.58;32.00
16331;BME280;8275;48.206;16.340;2023-03-19T03:01:33;99164.44;;;11.59;32.07
16331;BME280;8275;48.206;16.340;2023-03-19T03:04:02;99159.22;;;11.58;31.81
16331;BME280;8275;48.206;16.340;2023-03-19T03:06:31;99158.63;;;11.56;32.03
16331;BME280;8275;48.206;16.340;2023-03-19T03:08:59;99175.38;;;11.54;31.66
16331;BME280;8275;48.206;16.340;2023-03-19T03:11:28;99177.00;;;11.50;31.85
16331;BME280;8275;48.206;16.340;2023-03-19T03:13:58;99180.03;;;11.49;32.35
16331;BME280;8275;48.206;16.340;2023-03-19T03:16:27;99175.88;;;11.46;32.48
16331;BME280;8275;48.206;16.340;2023-03-19T03:18:55;99176.97;;;11.45;32.41
16331;BME280;8275;48.206;16.340;2023-03-19T03:21:24;99185.19;;;11.45;32.10
16331;BME280;8275;48.206;16.340;2023-03-19T03:23:52;99182.72;;;11.44;32.11
16331;BME280;8275;48.206;16.340;2023-03-19T03:26:21;99199.41;;;11.42;32.29
16331;BME280;8275;48.206;16.340;2023-03-19T03:28:49;99207.94;;;11.41;32.29
16331;BME280;8275;48.206;16.340;2023-03-19T03:31:20;99202.72;;;11.39;32.58
16331;BME280;8275;48.206;16.340;2023-03-19T03:33:49;99205.47;;;11.39;32.42
16331;BME280;8275;48.206;16.340;2023-03-19T03:36:18;99201.88;;;11.39;32.77
16331;BME280;8275;48.206;16.340;2023-03-19T03:38:46;99210.09;;;11.39;32.92
16331;BME280;8275;48.206;16.340;2023-03-19T03:41:14;99212.84;;;11.39;32.64
16331;BME280;8275;48.206;16.340;2023-03-19T03:43:43;99224.09;;;11.37;32.83
16331;BME280;8275;48.206;16.340;2023-03-19T03:46:11;99219.69;;;11.36;33.00
16331;BME280;8275;48.206;16.340;2023-03-19T03:48:42;99205.97;;;11.36;33.24
16331;BME280;8275;48.206;16.340;2023-03-19T03:51:10;99206.25;;;11.35;32.87
16331;BME280;8275;48.206;16.340;2023-03-19T03:53:39;99216.38;;;11.34;32.95
16331;BME280;8275;48.206;16.340;2023-03-19T03:56:07;99209.22;;;11.33;32.91
16331;BME280;8275;48.206;16.340;2023-03-19T03:58:36;99210.34;;;11.32;32.92
16331;BME280;8275;48.206;16.340;2023-03-19T04:01:05;99216.06;;;11.30;33.01
16331;BME280;8275;48.206;16.340;2023-03-19T04:03:34;99211.69;;;11.29;33.30
16331;BME280;8275;48.206;16.340;2023-03-19T04:06:04;99213.59;;;11.29;33.45
16331;BME280;8275;48.206;16.340;2023-03-19T04:08:33;99221.00;;;11.28;33.54
16331;BME280;8275;48.206;16.340;2023-03-19T04:11:06;99220.44;;;11.26;33.57
16331;BME280;8275;48.206;16.340;2023-03-19T04:13:35;99231.66;;;11.25;33.30
16331;BME280;8275;48.206;16.340;2023-03-19T04:16:04;99236.59;;;11.23;33.35
16331;BME280;8275;48.206;16.340;2023-03-19T04:18:33;99239.56;;;11.21;33.53
16331;BME280;8275;48.206;16.340;2023-03-19T04:21:04;99227.22;;;11.19;33.64
16331;BME280;8275;48.206;16.340;2023-03-19T04:23:33;99226.66;;;11.17;33.38
16331;BME280;8275;48.206;16.340;2023-03-19T04:26:03;99224.44;;;11.14;33.67
16331;BME280;8275;48.206;16.340;2023-03-19T04:28:33;99234.25;;;11.10;33.98
16331;BME280;8275;48.206;16.340;2023-03-19T04:31:04;99238.34;;;11.07;33.78
16331;BME280;8275;48.206;16.340;2023-03-19T04:33:33;99223.28;;;11.05;33.81
16331;BME280;8275;48.206;16.340;2023-03-19T04:36:04;99221.88;;;11.02;33.79
16331;BME280;8275;48.206;16.340;2023-03-19T04:38:33;99227.88;;;10.99;34.02
16331;BME280;8275;48.206;16.340;2023-03-19T04:41:01;99238.28;;;10.97;34.02
16331;BME280;8275;48.206;16.340;2023-03-19T04:43:30;99242.34;;;10.95;34.39
16331;BME280;8275;48.206;16.340;2023-03-19T04:45:58;99242.88;;;10.92;34.13
16331;BME280;8275;48.206;16.340;2023-03-19T04:48:27;99238.47;;;10.91;34.47
16331;BME280;8275;48.206;16.340;2023-03-19T04:50:55;99233.25;;;10.89;34.29
16331;BME280;8275;48.206;16.340;2023-03-19T04:53:25;99233.50;;;10.88;34.55
16331;BME280;8275;48.206;16.340;2023-03-19T04:55:54;99229.09;;;10.87;34.30
16331;BME280;8275;48.206;16.340;2023-03-19T04:58:23;99242.25;;;10.85;34.53
16331;BME280;8275;48.206;16.340;2023-03-19T05:00:52;99226.06;;;10.83;34.71
16331;BME280;8275;48.206;16.340;2023-03-19T05:03:20;99232.38;;;10.84;34.37
16331;BME280;8275;48.206;16.340;2023-03-19T05:05:48;99226.91;;;10.84;34.53
16331;BME280;8275;48.206;16.340;2023-03-19T05:08:17;99230.72;;;10.83;34.63
16331;BME280;8275;48.206;16.340;2023-03-19T05:10:47;99231.81;;;10.82;35.02
16331;BME280;8275;48.206;16.340;2023-03-19T05:13:15;99229.06;;;10.82;34.94
16331;BME280;8275;48.206;16.340;2023-03-19T05:15:47;99231.00;;;10.81;34.71
16331;BME280;8275;48.206;16.340;2023-03-19T05:18:16;99222.75;;;10.81;34.87
16331;BME280;8275;48.206;16.340;2023-03-19T05:20:44;99221.66;;;10.82;35.13
16331;BME280;8275;48.206;16.340;2023-03-19T05:23:12;99217.00;;;10.83;35.21
16331;BME280;8275;48.206;16.340;2023-03-19T05:25:41;99220.59;;;10.83;35.19
16331;BME280;8275;48.206;16.340;2023-03-19T05:28:11;99222.25;;;10.84;35.32
16331;BME280;8275;48.206;16.340;2023-03-19T05:30:40;99222.25;;;10.84;35.33
16331;BME280;8275;48.206;16.340;2023-03-19T05:33:09;99223.06;;;10.85;35.30
16331;BME280;8275;48.206;16.340;2023-03-19T05:35:37;99218.41;;;10.85;35.11
16331;BME280;8275;48.206;16.340;2023-03-19T05:38:06;99219.25;;;10.86;35.22
16331;BME280;8275;48.206;16.340;2023-03-19T05:40:35;99218.97;;;10.87;35.19
16331;BME280;8275;48.206;16.340;2023-03-19T05:43:04;99218.75;;;10.89;35.29
16331;BME280;8275;48.206;16.340;2023-03-19T05:45:33;99239.56;;;10.90;35.40
16331;BME280;8275;48.206;16.340;2023-03-19T05:48:02;99230.81;;;10.93;35.27
16331;BME280;8275;48.206;16.340;2023-03-19T05:50:31;99244.03;;;10.96;35.61
16331;BME280;8275;48.206;16.340;2023-03-19T05:53:00;99241.84;;;10.98;35.30
16331;BME280;8275;48.206;16.340;2023-03-19T05:55:29;99232.84;;;11.02;35.60
16331;BME280;8275;48.206;16.340;2023-03-19T05:57:57;99240.53;;;11.05;35.39
16331;BME280;8275;48.206;16.340;2023-03-19T06:00:26;99244.41;;;11.09;35.38
16331;BME280;8275;48.206;16.340;2023-03-19T06:02:56;99251.31;;;11.12;35.21
16331;BME280;8275;48.206;16.340;2023-03-19T06:05:24;99258.97;;;11.15;35.51
16331;BME280;8275;48.206;16.340;2023-03-19T06:07:53;99253.81;;;11.18;35.61
16331;BME280;8275;48.206;16.340;2023-03-19T06:10:21;99257.97;;;11.21;35.27
16331;BME280;8275;48.206;16.340;2023-03-19T06:12:50;99250.88;;;11.25;35.52
16331;BME280;8275;48.206;16.340;2023-03-19T06:15:18;99257.47;;;11.29;35.32
16331;BME280;8275;48.206;16.340;2023-03-19T06:17:47;99260.53;;;11.33;35.55
16331;BME280;8275;48.206;16.340;2023-03-19T06:20:17;99263.28;;;11.38;35.33
16331;BME280;8275;48.206;16.340;2023-03-19T06:22:46;99261.44;;;11.43;35.35
16331;BME280;8275;48.206;16.340;2023-03-19T06:25:14;99259.81;;;11.47;35.19
16331;BME280;8275;48.206;16.340;2023-03-19T06:27:43;99256.84;;;11.54;35.54
16331;BME280;8275;48.206;16.340;2023-03-19T06:30:12;99271.72;;;11.58;35.36
16331;BME280;8275;48.206;16.340;2023-03-19T06:32:41;99277.81;;;11.65;35.69
16331;BME280;8275;48.206;16.340;2023-03-19T06:35:11;99266.06;;;11.69;35.59
16331;BME280;8275;48.206;16.340;2023-03-19T06:37:41;99267.47;;;11.77;35.22
16331;BME280;8275;48.206;16.340;2023-03-19T06:40:10;99267.50;;;11.82;35.28
16331;BME280;8275;48.206;16.340;2023-03-19T06:42:39;99270.84;;;11.89;35.23
16331;BME280;8275;48.206;16.340;2023-03-19T06:45:08;99280.75;;;11.95;35.05
16331;BME280;8275;48.206;16.340;2023-03-19T06:47:39;99276.16;;;12.01;35.29
16331;BME280;8275;48.206;16.340;2023-03-19T06:50:09;99280.56;;;12.07;35.29
16331;BME280;8275;48.206;16.340;2023-03-19T06:52:39;99281.44;;;12.12;35.16
16331;BME280;8275;48.206;16.340;2023-03-19T06:55:09;99281.47;;;12.17;35.19
16331;BME280;8275;48.206;16.340;2023-03-19T06:57:37;99300.44;;;12.24;35.08
16331;BME280;8275;48.206;16.340;2023-03-19T07:00:08;99298.56;;;12.29;35.16
16331;BME280;8275;48.206;16.340;2023-03-19T07:02:37;99285.16;;;12.38;34.73
16331;BME280;8275;48.206;16.340;2023-03-19T07:05:07;99283.81;;;12.45;34.93
16331;BME280;8275;48.206;16.340;2023-03-19T07:07:36;99273.94;;;12.54;35.00
16331;BME280;8275;48.206;16.340;2023-03-19T07:10:07;99270.38;;;12.64;34.74
16331;BME280;8275;48.206;16.340;2023-03-19T07:12:35;99259.97;;;12.71;34.71
16331;BME280;8275;48.206;16.340;2023-03-19T07:15:06;99262.75;;;12.76;34.88
16331;BME280;8275;48.206;16.340;2023-03-19T07:17:34;99267.19;;;12.82;34.86
16331;BME280;8275;48.206;16.340;2023-03-19T07:20:04;99276.00;;;12.89;34.65
16331;BME280;8275;48.206;16.340;2023-03-19T07:22:33;99295.78;;;13.01;34.45
16331;BME280;8275;48.206;16.340;2023-03-19T07:25:02;99304.94;;;13.12;34.54
16331;BME280;8275;48.206;16.340;2023-03-19T07:27:32;99312.13;;;13.23;34.37
16331;BME280;8275;48.206;16.340;2023-03-19T07:30:01;99313.50;;;13.35;34.41
16331;BME280;8275;48.206;16.340;2023-03-19T07:32:29;99307.19;;;13.50;34.35
16331;BME280;8275;48.206;16.340;2023-03-19T07:34:58;99309.69;;;13.67;34.12
16331;BME280;8275;48.206;16.340;2023-03-19T07:37:27;99308.03;;;13.81;33.99
16331;BME280;8275;48.206;16.340;2023-03-19T07:39:55;99307.47;;;13.94;33.83
16331;BME280;8275;48.206;16.340;2023-03-19T07:42:24;99308.00;;;14.06;33.79
16331;BME280;8275;48.206;16.340;2023-03-19T07:44:54;99312.09;;;14.14;33.70
16331;BME280;8275;48.206;16.340;2023-03-19T07:47:22;99313.22;;;14.23;33.56
16331;BME280;8275;48.206;16.340;2023-03-19T07:49:56;99315.69;;;14.34;33.47
16331;BME280;8275;48.206;16.340;2023-03-19T07:52:25;99315.94;;;14.43;33.40
16331;BME280;8275;48.206;16.340;2023-03-19T07:54:54;99324.75;;;14.50;33.25
16331;BME280;8275;48.206;16.340;2023-03-19T07:57:22;99313.13;;;14.58;33.25
16331;BME280;8275;48.206;16.340;2023-03-19T07:59:52;99325.50;;;14.65;33.22
16331;BME280;8275;48.206;16.340;2023-03-19T08:02:21;99323.28;;;14.72;32.99
16331;BME280;8275;48.206;16.340;2023-03-19T08:04:49;99318.28;;;14.80;33.04
16331;BME280;8275;48.206;16.340;2023-03-19T08:07:18;99322.06;;;14.94;32.92
16331;BME280;8275;48.206;16.340;2023-03-19T08:09:47;99318.97;;;15.05;32.69
16331;BME280;8275;48.206;16.340;2023-03-19T08:12:16;99316.75;;;15.12;32.68
16331;BME280;8275;48.206;16.340;2023-03-19T08:14:44;99313.38;;;15.20;32.64
16331;BME280;8275;48.206;16.340;2023-03-19T08:17:14;99313.56;;;15.29;32.58
16331;BME280;8275;48.206;16.340;2023-03-19T08:19:43;99334.25;;;15.36;32.38
16331;BME280;8275;48.206;16.340;2023-03-19T08:22:11;99338.91;;;15.46;32.37
16331;BME280;8275;48.206;16.340;2023-03-19T08:24:40;99322.81;;;15.58;32.31
16331;BME280;8275;48.206;16.340;2023-03-19T08:27:08;99318.56;;;15.71;31.94
16331;BME280;8275;48.206;16.340;2023-03-19T08:29:37;99334.22;;;15.80;31.94
16331;BME280;8275;48.206;16.340;2023-03-19T08:32:06;99333.34;;;15.85;31.99
16331;BME280;8275;48.206;16.340;2023-03-19T08:34:36;99333.06;;;15.86;31.90
16331;BME280;8275;48.206;16.340;2023-03-19T08:37:05;99321.41;;;15.94;31.96
16331;BME280;8275;48.206;16.340;2023-03-19T08:39:33;99323.47;;;16.07;31.78
16331;BME280;8275;48.206;16.340;2023-03-19T08:42:02;99325.84;;;16.19;31.62
16331;BME280;8275;48.206;16.340;2023-03-19T08:44:30;99324.09;;;16.28;31.63
16331;BME280;8275;48.206;16.340;2023-03-19T08:46:59;99318.53;;;16.33;31.50
16331;BME280;8275;48.206;16.340;2023-03-19T08:49:27;99320.38;;;16.43;31.43
16331;BME280;8275;48.206;16.340;2023-03-19T08:51:57;99315.81;;;16.57;30.88
16331;BME280;8275;48.206;16.340;2023-03-19T08:54:25;99319.22;;;16.72;30.92
16331;BME280;8275;48.206;16.340;2023-03-19T08:56:54;99316.84;;;16.84;30.83
16331;BME280;8275;48.206;16.340;2023-03-19T08:59:22;99320.03;;;16.97;30.65
16331;BME280;8275;48.206;16.340;2023-03-19T09:01:51;99313.00;;;17.04;30.73
16331;BME280;8275;48.206;16.340;2023-03-19T09:04:20;99319.22;;;17.15;30.50
16331;BME280;8275;48.206;16.340;2023-03-19T09:06:49;99328.00;;;17.22;30.50
16331;BME280;8275;48.206;16.340;2023-03-19T09:09:22;99329.69;;;17.18;30.41
16331;BME280;8275;48.206;16.340;2023-03-19T09:11:51;99322.44;;;17.22;30.42
16331;BME280;8275;48.206;16.340;2023-03-19T09:14:19;99321.84;;;17.25;30.43
16331;BME280;8275;48.206;16.340;2023-03-19T09:16:49;99332.91;;;17.25;30.36
16331;BME280;8275;48.206;16.340;2023-03-19T09:19:17;99338.16;;;17.26;30.46
16331;BME280;8275;48.206;16.340;2023-03-19T09:21:46;99344.50;;;17.27;30.40
16331;BME280;8275;48.206;16.340;2023-03-19T09:24:14;99346.69;;;17.30;30.26
16331;BME280;8275;48.206;16.340;2023-03-19T09:26:44;99338.63;;;17.33;30.18
16331;BME280;8275;48.206;16.340;2023-03-19T09:29:13;99339.41;;;17.34;30.20
16331;BME280;8275;48.206;16.340;2023-03-19T09:31:42;99334.50;;;17.31;30.20
16331;BME280;8275;48.206;16.340;2023-03-19T09:34:10;99330.91;;;17.30;30.20
16331;BME280;8275;48.206;16.340;2023-03-19T09:36:39;99327.75;;;17.37;30.19
16331;BME280;8275;48.206;16.340;2023-03-19T09:39:08;99337.34;;;17.44;30.07
16331;BME280;8275;48.206;16.340;2023-03-19T09:41:47;99330.66;;;17.45;30.01
16331;BME280;8275;48.206;16.340;2023-03-19T09:44:22;99328.69;;;17.51;30.02
16331;BME280;8275;48.206;16.340;2023-03-19T09:47:09;99323.34;;;17.54;29.94
16331;BME280;8275;48.206;16.340;2023-03-19T09:49:43;99318.06;;;17.58;29.82
16331;BME280;8275;48.206;16.340;2023-03-19T09:52:26;99309.16;;;17.61;29.82
16331;BME280;8275;48.206;16.340;2023-03-19T09:55:02;99318.19;;;17.67;29.79
16331;BME280;8275;48.206;16.340;2023-03-19T09:57:35;99316.69;;;17.74;29.76
16331;BME280;8275;48.206;16.340;2023-03-19T10:00:21;99321.63;;;17.77;29.48
16331;BME280;8275;48.206;16.340;2023-03-19T10:02:57;99311.88;;;17.80;29.60
16331;BME280;8275;48.206;16.340;2023-03-19T10:05:41;99312.63;;;17.85;29.52
16331;BME280;8275;48.206;16.340;2023-03-19T10:08:40;99317.50;;;17.93;29.50
16331;BME280;8275;48.206;16.340;2023-03-19T10:11:29;99312.69;;;18.12;29.27
16331;BME280;8275;48.206;16.340;2023-03-19T10:14:18;99310.59;;;18.37;29.24
16331;BME280;8275;48.206;16.340;2023-03-19T10:16:54;99310.41;;;18.60;28.99
16331;BME280;8275;48.206;16.340;2023-03-19T10:19:40;99302.72;;;18.71;28.87
16331;BME280;8275;48.206;16.340;2023-03-19T10:22:14;99300.66;;;18.76;28.92
16331;BME280;8275;48.206;16.340;2023-03-19T10:24:45;99295.50;;;18.83;28.86
16331;BME280;8275;48.206;16.340;2023-03-19T10:27:16;99295.13;;;18.90;28.81
16331;BME280;8275;48.206;16.340;2023-03-19T10:29:46;99288.50;;;19.00;28.64
16331;BME280;8275;48.206;16.340;2023-03-19T10:32:19;99295.09;;;19.04;28.36
16331;BME280;8275;48.206;16.340;2023-03-19T10:34:49;99297.44;;;19.10;28.29
16331;BME280;8275;48.206;16.340;2023-03-19T10:37:22;99297.84;;;19.17;28.25
16331;BME280;8275;48.206;16.340;2023-03-19T10:39:55;99297.81;;;19.31;27.98
16331;BME280;8275;48.206;16.340;2023-03-19T10:42:39;99296.78;;;19.40;27.95
16331;BME280;8275;48.206;16.340;2023-03-19T10:45:23;99300.25;;;19.46;28.07
16331;BME280;8275;48.206;16.340;2023-03-19T10:47:55;99294.53;;;19.65;27.71
16331;BME280;8275;48.206;16.340;2023-03-19T10:50:30;99304.53;;;19.88;27.62
16331;BME280;8275;48.206;16.340;2023-03-19T10:53:05;99296.81;;;20.07;27.34
16331;BME280;8275;48.206;16.340;2023-03-19T10:55:35;99296.72;;;20.20;27.34
16331;BME280;8275;48.206;16.340;2023-03-19T10:58:06;99294.03;;;20.38;27.01
16331;BME280;8275;48.206;16.340;2023-03-19T11:00:47;99289.91;;;20.57;27.18
16331;BME280;8275;48.206;16.340;2023-03-19T11:03:30;99291.25;;;20.77;26.56
16331;BME280;8275;48.206;16.340;2023-03-19T11:06:18;99280.00;;;20.90;26.42
16331;BME280;8275;48.206;16.340;2023-03-19T11:08:54;99285.59;;;20.99;26.63
16331;BME280;8275;48.206;16.340;2023-03-19T11:11:26;99287.81;;;21.11;26.30
16331;BME280;8275;48.206;16.340;2023-03-19T11:14:07;99275.34;;;21.25;26.38
16331;BME280;8275;48.206;16.340;2023-03-19T11:16:57;99274.22;;;21.52;26.12
16331;BME280;8275;48.206;16.340;2023-03-19T11:19:33;99278.97;;;21.77;26.03
16331;BME280;8275;48.206;16.340;2023-03-19T11:22:14;99272.38;;;21.99;25.78
16331;BME280;8275;48.206;16.340;2023-03-19T11:24:53;99274.63;;;22.22;25.32
16331;BME280;8275;48.206;16.340;2023-03-19T11:27:31;99274.91;;;22.47;25.20
16331;BME280;8275;48.206;16.340;2023-03-19T11:30:05;99278.41;;;22.73;23.85
16331;BME280;8275;48.206;16.340;2023-03-19T11:36:11;99260.03;;;23.01;24.30
16331;BME280;8275;48.206;16.340;2023-03-19T11:38:54;99251.09;;;23.37;22.68
16331;BME280;8275;48.206;16.340;2023-03-19T11:41:36;99240.75;;;23.70;23.33
16331;BME280;8275;48.206;16.340;2023-03-19T11:44:16;99239.25;;;24.05;22.65
16331;BME280;8275;48.206;16.340;2023-03-19T11:46:56;99246.25;;;24.44;21.30
16331;BME280;8275;48.206;16.340;2023-03-19T11:49:44;99232.97;;;24.77;22.20
16331;BME280;8275;48.206;16.340;2023-03-19T11:52:26;99230.41;;;24.96;22.21
16331;BME280;8275;48.206;16.340;2023-03-19T11:55:15;99227.72;;;25.00;22.13
16331;BME280;8275;48.206;16.340;2023-03-19T11:58:03;99229.25;;;24.97;22.47
16331;BME280;8275;48.206;16.340;2023-03-19T12:00:41;99225.94;;;25.07;22.28
16331;BME280;8275;48.206;16.340;2023-03-19T12:03:51;99225.69;;;25.25;22.16
16331;BME280;8275;48.206;16.340;2023-03-19T12:06:36;99224.13;;;25.39;21.99
16331;BME280;8275;48.206;16.340;2023-03-19T12:09:18;99216.13;;;25.14;21.88
16331;BME280;8275;48.206;16.340;2023-03-19T12:11:53;99208.34;;;24.83;21.90
16331;BME280;8275;48.206;16.340;2023-03-19T12:14:43;99218.25;;;24.56;20.53
16331;BME280;8275;48.206;16.340;2023-03-19T12:17:33;99215.53;;;24.23;21.48
16331;BME280;8275;48.206;16.340;2023-03-19T12:20:41;99219.34;;;24.07;21.88
16331;BME280;8275;48.206;16.340;2023-03-19T12:23:28;99212.78;;;24.03;21.83
16331;BME280;8275;48.206;16.340;2023-03-19T12:26:05;99213.41;;;23.88;22.00
16331;BME280;8275;48.206;16.340;2023-03-19T12:28:40;99206.84;;;23.71;22.03
16331;BME280;8275;48.206;16.340;2023-03-19T12:31:33;99204.03;;;23.71;22.30
16331;BME280;8275;48.206;16.340;2023-03-19T12:34:23;99197.81;;;24.19;22.25
16331;BME280;8275;48.206;16.340;2023-03-19T12:37:14;99195.25;;;24.87;22.02
16331;BME280;8275;48.206;16.340;2023-03-19T12:39:53;99192.25;;;25.32;21.66
16331;BME280;8275;48.206;16.340;2023-03-19T12:42:31;99187.28;;;25.53;21.50
16331;BME280;8275;48.206;16.340;2023-03-19T12:45:15;99190.31;;;25.60;21.17
16331;BME280;8275;48.206;16.340;2023-03-19T12:47:47;99184.97;;;25.70;21.12
16331;BME280;8275;48.206;16.340;2023-03-19T12:50:17;99179.16;;;26.07;20.70
16331;BME280;8275;48.206;16.340;2023-03-19T12:52:49;99174.13;;;26.43;20.62
16331;BME280;8275;48.206;16.340;2023-03-19T12:55:24;99171.13;;;26.83;20.50
16331;BME280;8275;48.206;16.340;2023-03-19T12:57:59;99166.75;;;27.21;20.25
16331;BME280;8275;48.206;16.340;2023-03-19T13:00:33;99167.50;;;27.75;19.82
16331;BME280;8275;48.206;16.340;2023-03-19T13:03:08;99159.00;;;28.36;19.16
16331;BME280;8275;48.206;16.340;2023-03-19T13:05:43;99158.94;;;28.81;19.04
16331;BME280;8275;48.206;16.340;2023-03-19T13:08:18;99162.69;;;28.89;18.50
16331;BME280;8275;48.206;16.340;2023-03-19T13:10:50;99143.47;;;28.98;18.48
16331;BME280;8275;48.206;16.340;2023-03-19T13:13:33;99150.63;;;29.18;18.63
16331;BME280;8275;48.206;16.340;2023-03-19T13:16:28;99152.31;;;29.23;18.26
16331;BME280;8275;48.206;16.340;2023-03-19T13:19:09;99146.66;;;28.96;17.99
16331;BME280;8275;48.206;16.340;2023-03-19T13:21:41;99150.53;;;28.59;18.29
16331;BME280;8275;48.206;16.340;2023-03-19T13:24:20;99143.31;;;28.16;18.53
16331;BME280;8275;48.206;16.340;2023-03-19T13:26:53;99154.56;;;27.93;18.10
16331;BME280;8275;48.206;16.340;2023-03-19T13:29:26;99146.97;;;27.74;18.11